createdAt,value
2023-05-23T00:01:38.870Z,18.90
2023-05-23T00:04:06.741Z,18.80
2023-05-23T00:06:34.348Z,18.70
2023-05-23T00:09:01.280Z,18.60
2023-05-23T00:11:29.122Z,18.50
2023-05-23T00:13:57.523Z,18.50
2023-05-23T00:16:24.320Z,18.50
2023-05-23T00:18:51.851Z,18.40
2023-05-23T00:21:18.719Z,18.40
2023-05-23T00:23:45.509Z,18.30
2023-05-23T00:26:12.251Z,18.20
2023-05-23T00:28:39.036Z,18.20
2023-05-23T00:31:05.968Z,18.20
2023-05-23T00:33:34.267Z,18.10
2023-05-23T00:36:01.085Z,18.10
2023-05-23T00:38:28.475Z,18.10
2023-05-23T00:40:55.395Z,18.10
2023-05-23T00:43:22.811Z,18.00
2023-05-23T00:45:49.909Z,17.90
2023-05-23T00:48:17.077Z,17.90
2023-05-23T00:50:44.186Z,17.90
2023-05-23T00:53:11.017Z,17.80
2023-05-23T00:55:39.603Z,17.80
2023-05-23T00:58:06.683Z,17.70
2023-05-23T01:00:34.711Z,17.70
2023-05-23T01:03:01.876Z,17.60
2023-05-23T01:05:28.698Z,17.60
2023-05-23T01:07:55.693Z,17.60
2023-05-23T01:10:29.519Z,17.50
2023-05-23T01:13:18.175Z,17.50
2023-05-23T01:16:03.396Z,17.50
2023-05-23T01:18:43.828Z,17.50
2023-05-23T01:21:17.236Z,17.60
2023-05-23T01:23:56.290Z,17.60
2023-05-23T01:26:32.469Z,17.60
2023-05-23T01:29:10.993Z,17.70
2023-05-23T01:31:43.111Z,17.60
2023-05-23T01:34:12.356Z,17.70
2023-05-23T01:36:43.703Z,17.70
2023-05-23T01:39:10.772Z,17.70
2023-05-23T01:41:38.033Z,17.60
2023-05-23T01:44:05.692Z,17.40
2023-05-23T01:46:34.171Z,17.40
2023-05-23T01:49:04.240Z,17.30
2023-05-23T01:51:31.678Z,17.40
2023-05-23T01:53:59.050Z,17.40
2023-05-23T01:56:27.225Z,17.50
2023-05-23T01:58:54.425Z,17.60
2023-05-23T02:01:21.642Z,17.60
2023-05-23T02:03:49.347Z,17.60
2023-05-23T02:06:16.334Z,17.60
2023-05-23T02:08:43.233Z,17.60
2023-05-23T02:11:10.690Z,17.50
2023-05-23T02:13:37.518Z,17.50
2023-05-23T02:16:04.397Z,17.50
2023-05-23T02:18:31.203Z,17.50
2023-05-23T02:20:58.103Z,17.30
2023-05-23T02:23:24.900Z,17.20
2023-05-23T02:25:51.719Z,17.10
2023-05-23T02:28:18.493Z,17.10
2023-05-23T02:30:46.158Z,17.10
2023-05-23T02:33:13.253Z,17.20
2023-05-23T02:35:40.569Z,17.30
2023-05-23T02:38:07.499Z,17.30
2023-05-23T02:40:34.306Z,17.30
2023-05-23T02:43:01.146Z,17.40
2023-05-23T02:45:27.895Z,17.40
2023-05-23T02:47:54.745Z,17.40
2023-05-23T02:50:21.617Z,17.40
2023-05-23T02:52:48.366Z,17.40
2023-05-23T02:55:15.742Z,17.40
2023-05-23T02:57:42.550Z,17.30
2023-05-23T03:00:10.273Z,17.30
2023-05-23T03:02:37.331Z,17.30
2023-05-23T03:05:06.229Z,17.20
2023-05-23T03:07:33.921Z,17.10
2023-05-23T03:10:01.174Z,17.10
2023-05-23T03:12:29.279Z,17.20
2023-05-23T03:14:56.119Z,17.20
2023-05-23T03:17:25.091Z,17.30
2023-05-23T03:19:51.906Z,17.30
2023-05-23T03:22:18.678Z,17.20
2023-05-23T03:24:45.469Z,17.20
2023-05-23T03:27:12.321Z,17.10
2023-05-23T03:29:39.473Z,17.10
2023-05-23T03:32:06.725Z,17.10
2023-05-23T03:34:34.027Z,17.10
2023-05-23T03:37:00.894Z,17.10
2023-05-23T03:39:27.634Z,17.00
2023-05-23T03:41:54.503Z,17.00
2023-05-23T03:44:21.388Z,16.90
2023-05-23T03:46:48.144Z,16.90
2023-05-23T03:49:15.296Z,16.90
2023-05-23T03:51:42.064Z,16.80
2023-05-23T03:54:08.878Z,16.80
2023-05-23T03:56:35.671Z,16.80
2023-05-23T03:59:02.443Z,16.90
2023-05-23T04:01:29.226Z,16.90
2023-05-23T04:03:56.068Z,17.00
2023-05-23T04:06:23.388Z,17.00
2023-05-23T04:08:50.153Z,17.00
2023-05-23T04:11:17.783Z,17.00
2023-05-23T04:13:47.045Z,17.00
2023-05-23T04:16:13.924Z,17.10
2023-05-23T04:18:40.965Z,17.10
2023-05-23T04:21:07.755Z,17.00
2023-05-23T04:23:34.647Z,17.10
2023-05-23T04:26:01.484Z,17.10
2023-05-23T04:28:28.388Z,17.20
2023-05-23T04:30:56.379Z,17.10
2023-05-23T04:33:23.282Z,17.00
2023-05-23T04:35:51.250Z,17.10
2023-05-23T04:38:18.052Z,17.20
2023-05-23T04:40:44.830Z,17.20
2023-05-23T04:43:14.303Z,17.20
2023-05-23T04:45:41.748Z,17.10
2023-05-23T04:48:08.809Z,17.10
2023-05-23T04:50:36.055Z,17.20
2023-05-23T04:53:02.816Z,17.30
2023-05-23T04:55:29.795Z,17.40
2023-05-23T04:57:56.706Z,17.30
2023-05-23T05:00:23.723Z,17.40
2023-05-23T05:02:50.587Z,17.30
2023-05-23T05:05:17.594Z,17.40
2023-05-23T05:07:44.390Z,17.40
2023-05-23T05:10:16.943Z,17.40
2023-05-23T05:12:46.858Z,17.50
2023-05-23T05:15:13.983Z,17.40
2023-05-23T05:17:41.947Z,17.20
2023-05-23T05:20:10.835Z,17.20
2023-05-23T05:22:42.971Z,17.20
2023-05-23T05:25:11.089Z,17.30
2023-05-23T05:27:38.078Z,17.20
2023-05-23T05:30:09.095Z,17.20
2023-05-23T05:32:36.171Z,17.20
2023-05-23T05:35:03.655Z,17.20
2023-05-23T05:37:30.741Z,17.30
2023-05-23T05:39:57.531Z,17.20
2023-05-23T05:42:24.523Z,17.20
2023-05-23T05:44:51.371Z,17.20
2023-05-23T05:47:18.194Z,17.20
2023-05-23T05:49:44.940Z,17.20
2023-05-23T05:52:11.721Z,17.10
2023-05-23T05:54:38.500Z,17.10
2023-05-23T05:57:05.547Z,17.30
2023-05-23T05:59:32.706Z,17.20
2023-05-23T06:01:59.661Z,17.30
2023-05-23T06:04:26.589Z,17.10
2023-05-23T06:06:53.441Z,17.20
2023-05-23T06:09:20.760Z,17.30
2023-05-23T06:11:47.618Z,17.40
2023-05-23T06:14:14.425Z,17.50
2023-05-23T06:16:41.932Z,17.60
2023-05-23T06:19:08.801Z,17.60
2023-05-23T06:21:36.311Z,17.70
2023-05-23T06:24:03.094Z,17.70
2023-05-23T06:26:31.886Z,17.70
2023-05-23T06:28:58.619Z,17.80
2023-05-23T06:31:25.616Z,18.00
2023-05-23T06:33:52.504Z,18.10
2023-05-23T06:36:19.226Z,18.20
2023-05-23T06:38:47.413Z,18.40
2023-05-23T06:41:43.082Z,18.60
2023-05-23T06:44:09.970Z,18.80
2023-05-23T06:46:39.700Z,18.90
2023-05-23T06:51:40.401Z,19.30
2023-05-23T06:54:07.321Z,19.30
2023-05-23T06:56:34.157Z,19.40
2023-05-23T06:59:00.965Z,19.50
2023-05-23T07:01:27.796Z,19.50
2023-05-23T07:03:54.654Z,19.50
2023-05-23T07:06:21.463Z,19.70
2023-05-23T07:08:48.212Z,19.90
2023-05-23T07:11:15.041Z,20.00
2023-05-23T07:13:41.854Z,20.10
2023-05-23T07:16:08.640Z,20.20
2023-05-23T07:18:37.752Z,20.10
2023-05-23T07:21:05.800Z,20.20
2023-05-23T07:23:35.354Z,20.20
2023-05-23T07:26:03.308Z,19.90
2023-05-23T07:28:30.458Z,19.90
2023-05-23T07:30:58.291Z,19.90
2023-05-23T07:33:25.358Z,19.90
2023-05-23T07:35:52.213Z,19.80
2023-05-23T07:38:18.999Z,20.00
2023-05-23T07:40:52.712Z,20.30
2023-05-23T07:43:29.691Z,20.30
2023-05-23T07:45:56.530Z,20.30
2023-05-23T07:48:23.319Z,20.20
2023-05-23T07:50:54.925Z,20.30
2023-05-23T07:53:22.643Z,20.30
2023-05-23T07:55:49.551Z,20.40
2023-05-23T07:58:16.351Z,20.30
2023-05-23T08:00:44.243Z,20.30
2023-05-23T08:03:11.916Z,20.50
2023-05-23T08:05:39.267Z,20.50
2023-05-23T08:08:06.127Z,20.50
2023-05-23T08:10:32.907Z,20.60
2023-05-23T08:13:00.953Z,20.60
2023-05-23T08:15:28.792Z,20.60
2023-05-23T08:17:57.377Z,20.60
2023-05-23T08:20:30.802Z,20.50
2023-05-23T08:22:59.284Z,20.60
2023-05-23T08:25:30.311Z,20.90
2023-05-23T08:27:58.676Z,20.90
2023-05-23T08:30:26.574Z,20.80
2023-05-23T08:32:54.126Z,20.90
2023-05-23T08:35:22.253Z,21.10
2023-05-23T08:37:50.873Z,21.30
2023-05-23T08:40:22.144Z,21.50
2023-05-23T08:42:50.057Z,21.50
2023-05-23T08:45:17.479Z,21.50
2023-05-23T08:47:45.804Z,21.50
2023-05-23T08:50:14.375Z,21.60
2023-05-23T08:52:47.972Z,21.60
2023-05-23T08:55:16.251Z,21.20
2023-05-23T08:57:43.761Z,21.20
2023-05-23T09:00:14.872Z,21.20
2023-05-23T09:02:47.287Z,21.30
2023-05-23T09:05:14.659Z,21.30
2023-05-23T09:07:43.241Z,21.30
2023-05-23T09:10:11.157Z,21.50
2023-05-23T09:12:38.066Z,21.50
2023-05-23T09:15:09.687Z,21.50
2023-05-23T09:17:38.000Z,21.80
2023-05-23T09:20:12.668Z,22.00
2023-05-23T09:22:39.719Z,22.00
2023-05-23T09:25:07.814Z,21.70
2023-05-23T09:27:36.237Z,21.70
2023-05-23T09:30:10.952Z,21.60
2023-05-23T09:32:38.301Z,21.40
2023-05-23T09:35:06.969Z,21.00
2023-05-23T09:37:45.950Z,20.90
2023-05-23T09:40:14.756Z,21.00
2023-05-23T09:42:46.788Z,21.10
2023-05-23T09:45:14.437Z,21.10
2023-05-23T09:47:53.938Z,21.00
2023-05-23T09:50:21.880Z,20.90
2023-05-23T09:52:49.117Z,20.80
2023-05-23T09:55:16.070Z,20.70
2023-05-23T09:57:44.153Z,20.90
2023-05-23T10:00:14.838Z,20.90
2023-05-23T10:03:14.087Z,20.90
2023-05-23T10:05:51.924Z,20.80
2023-05-23T10:08:37.749Z,20.80
2023-05-23T10:11:13.838Z,20.80
2023-05-23T10:13:43.849Z,20.80
2023-05-23T10:16:34.244Z,21.10
2023-05-23T10:19:10.802Z,21.10
2023-05-23T10:21:46.483Z,21.10
2023-05-23T10:24:14.149Z,21.00
2023-05-23T10:26:41.392Z,20.80
2023-05-23T10:29:08.162Z,20.50
2023-05-23T10:31:35.903Z,20.30
2023-05-23T10:34:16.125Z,20.30
2023-05-23T10:37:20.228Z,20.20
2023-05-23T10:39:52.224Z,19.90
2023-05-23T10:42:34.237Z,19.90
2023-05-23T10:45:21.129Z,19.70
2023-05-23T10:47:51.136Z,19.60
2023-05-23T10:50:40.117Z,19.60
2023-05-23T10:53:09.237Z,19.70
2023-05-23T10:55:37.060Z,20.00
2023-05-23T10:58:21.720Z,20.00
2023-05-23T11:01:02.871Z,19.90
2023-05-23T11:03:51.980Z,19.80
2023-05-23T11:06:34.035Z,19.90
2023-05-23T11:09:25.334Z,19.90
2023-05-23T11:11:52.641Z,20.00
2023-05-23T11:14:20.906Z,19.80
2023-05-23T11:16:49.133Z,19.60
2023-05-23T11:19:19.152Z,19.50
2023-05-23T11:22:00.204Z,19.30
2023-05-23T11:24:54.964Z,19.30
2023-05-23T11:27:28.687Z,19.20
2023-05-23T11:30:07.217Z,19.20
2023-05-23T11:32:34.173Z,19.20
2023-05-23T11:35:08.074Z,19.00
2023-05-23T11:37:35.692Z,19.00
2023-05-23T11:40:27.028Z,18.90
2023-05-23T11:42:55.581Z,18.80
2023-05-23T11:45:27.284Z,18.80
2023-05-23T11:47:54.405Z,18.90
2023-05-23T11:50:21.594Z,19.00
2023-05-23T11:52:51.858Z,19.10
2023-05-23T11:55:23.129Z,19.10
2023-05-23T11:57:51.591Z,18.90
2023-05-23T12:00:19.427Z,18.90
2023-05-23T12:02:49.967Z,19.00
2023-05-23T12:05:17.352Z,19.10
2023-05-23T12:07:49.282Z,19.00
2023-05-23T12:10:17.694Z,18.90
2023-05-23T12:12:47.792Z,19.00
2023-05-23T12:15:15.149Z,18.90
2023-05-23T12:17:46.492Z,19.00
2023-05-23T12:20:13.718Z,19.10
2023-05-23T12:22:41.487Z,19.00
2023-05-23T12:25:11.680Z,19.00
2023-05-23T12:27:43.858Z,19.00
2023-05-23T12:30:14.888Z,19.00
2023-05-23T12:32:43.309Z,19.10
2023-05-23T12:35:13.415Z,19.10
2023-05-23T12:37:42.898Z,18.90
2023-05-23T12:40:14.578Z,18.90
2023-05-23T12:42:55.335Z,18.90
2023-05-23T12:45:24.229Z,18.80
2023-05-23T12:47:53.944Z,18.80
2023-05-23T12:50:21.281Z,18.90
2023-05-23T12:52:48.327Z,19.00
2023-05-23T12:55:15.299Z,19.20
2023-05-23T12:57:42.062Z,19.40
2023-05-23T13:00:09.875Z,19.50
2023-05-23T13:02:36.784Z,19.70
2023-05-23T13:05:03.725Z,19.80
2023-05-23T13:07:30.454Z,19.90
2023-05-23T13:09:57.612Z,19.90
2023-05-23T13:12:24.586Z,19.70
2023-05-23T13:14:51.622Z,19.50
2023-05-23T13:17:18.634Z,19.40
2023-05-23T13:19:45.753Z,19.20
2023-05-23T13:22:13.203Z,19.20
2023-05-23T13:24:40.976Z,19.10
2023-05-23T13:27:07.993Z,19.10
2023-05-23T13:29:35.021Z,19.10
2023-05-23T13:32:01.885Z,19.10
2023-05-23T13:34:28.763Z,19.00
2023-05-23T13:36:55.945Z,18.80
2023-05-23T13:39:22.886Z,18.70
2023-05-23T13:41:52.653Z,18.60
2023-05-23T13:44:19.495Z,18.50
2023-05-23T13:46:46.285Z,18.30
2023-05-23T13:49:13.093Z,18.30
2023-05-23T13:51:40.060Z,18.10
2023-05-23T13:54:07.055Z,17.90
2023-05-23T13:56:33.949Z,17.90
2023-05-23T13:59:01.268Z,17.90
2023-05-23T14:01:28.542Z,18.00
2023-05-23T14:03:55.492Z,18.00
2023-05-23T14:06:22.436Z,18.00
2023-05-23T14:08:49.287Z,18.00
2023-05-23T14:11:16.075Z,18.00
2023-05-23T14:13:42.850Z,18.00
2023-05-23T14:16:09.638Z,18.00
2023-05-23T14:18:36.480Z,18.00
2023-05-23T14:21:03.263Z,18.00
2023-05-23T14:23:30.040Z,18.00
2023-05-23T14:25:56.859Z,18.00
2023-05-23T14:28:24.649Z,18.00
2023-05-23T14:30:51.457Z,18.00
2023-05-23T14:33:18.760Z,18.00
2023-05-23T14:35:45.575Z,17.90
2023-05-23T14:38:12.347Z,17.80
2023-05-23T14:40:39.157Z,17.60
2023-05-23T14:43:05.895Z,17.50
2023-05-23T14:45:32.690Z,17.60
2023-05-23T14:47:59.511Z,17.60
2023-05-23T14:50:26.695Z,17.60
2023-05-23T14:52:53.950Z,17.60
2023-05-23T14:55:21.037Z,17.40
2023-05-23T14:57:47.829Z,17.30
2023-05-23T15:00:14.960Z,17.10
2023-05-23T15:02:41.831Z,17.00
2023-05-23T15:05:08.987Z,16.80
2023-05-23T15:07:35.994Z,16.70
2023-05-23T15:10:03.321Z,16.70
2023-05-23T15:12:30.103Z,16.60
2023-05-23T15:15:03.272Z,16.60
2023-05-23T15:17:31.221Z,16.20
2023-05-23T15:19:58.155Z,15.90
2023-05-23T15:22:37.875Z,15.60
2023-05-23T15:25:08.047Z,15.50
2023-05-23T15:27:34.830Z,15.40
2023-05-23T15:30:02.088Z,15.30
2023-05-23T15:32:29.069Z,15.40
2023-05-23T15:34:55.966Z,15.30
2023-05-23T15:37:22.885Z,15.30
2023-05-23T15:39:49.613Z,15.30
2023-05-23T15:42:16.401Z,15.20
2023-05-23T15:44:43.329Z,15.20
2023-05-23T15:47:10.668Z,15.10
2023-05-23T15:49:37.461Z,15.10
2023-05-23T15:52:04.465Z,15.00
2023-05-23T15:54:31.255Z,14.90
2023-05-23T15:56:58.001Z,14.90
2023-05-23T15:59:24.794Z,15.00
2023-05-23T16:01:51.669Z,15.00
2023-05-23T16:04:18.738Z,14.90
2023-05-23T16:06:46.617Z,14.90
2023-05-23T16:09:13.395Z,14.80
2023-05-23T16:11:40.275Z,14.80
2023-05-23T16:14:07.214Z,14.70
2023-05-23T16:16:34.824Z,14.70
2023-05-23T16:19:01.663Z,14.70
2023-05-23T16:21:28.527Z,14.60
2023-05-23T16:23:55.462Z,14.50
2023-05-23T16:26:22.256Z,14.50
2023-05-23T16:28:49.009Z,14.40
2023-05-23T16:31:16.838Z,14.40
2023-05-23T16:33:44.620Z,14.30
2023-05-23T16:36:11.639Z,14.30
2023-05-23T16:38:38.452Z,14.30
2023-05-23T16:41:05.329Z,14.10
2023-05-23T16:43:34.533Z,14.20
2023-05-23T16:46:01.403Z,14.10
2023-05-23T16:48:28.346Z,14.00
2023-05-23T16:50:55.376Z,13.90
2023-05-23T16:53:22.494Z,13.80
2023-05-23T16:55:50.088Z,13.80
2023-05-23T16:58:19.298Z,13.80
2023-05-23T17:00:47.762Z,13.70
2023-05-23T17:03:14.666Z,13.70
2023-05-23T17:05:41.845Z,13.60
2023-05-23T17:08:08.994Z,13.70
2023-05-23T17:10:36.812Z,13.60
2023-05-23T17:13:03.592Z,13.60
2023-05-23T17:15:30.615Z,13.60
2023-05-23T17:17:57.527Z,13.60
2023-05-23T17:20:26.657Z,13.60
2023-05-23T17:22:53.525Z,13.60
2023-05-23T17:25:20.566Z,13.50
2023-05-23T17:27:47.516Z,13.40
2023-05-23T17:30:14.698Z,13.30
2023-05-23T17:32:43.312Z,13.20
2023-05-23T17:35:10.683Z,13.10
2023-05-23T17:37:37.828Z,13.00
2023-05-23T17:40:06.639Z,13.00
2023-05-23T17:42:33.456Z,13.00
2023-05-23T17:45:00.292Z,13.00
2023-05-23T17:47:27.151Z,13.00
2023-05-23T17:49:54.005Z,13.00
2023-05-23T17:52:20.893Z,13.00
2023-05-23T17:54:47.654Z,13.10
2023-05-23T17:57:15.629Z,13.10
2023-05-23T17:59:42.374Z,13.10
2023-05-23T18:02:10.670Z,13.00
2023-05-23T18:04:37.747Z,13.00
2023-05-23T18:07:05.879Z,13.00
2023-05-23T18:09:32.662Z,13.10
2023-05-23T18:11:59.640Z,13.00
2023-05-23T18:14:26.640Z,13.10
2023-05-23T18:16:53.505Z,13.10
2023-05-23T18:19:20.424Z,13.10
2023-05-23T18:21:47.211Z,13.10
2023-05-23T18:24:13.992Z,13.00
2023-05-23T18:26:43.007Z,13.00
2023-05-23T18:29:10.117Z,12.90
2023-05-23T18:31:37.085Z,13.00
2023-05-23T18:34:04.646Z,13.00
2023-05-23T18:36:31.716Z,13.00
2023-05-23T18:38:58.573Z,12.90
2023-05-23T18:41:27.955Z,12.90
2023-05-23T18:43:54.855Z,12.90
2023-05-23T18:46:23.985Z,13.00
2023-05-23T18:48:51.429Z,13.00
2023-05-23T18:51:18.295Z,13.10
2023-05-23T18:53:45.178Z,13.10
2023-05-23T18:56:11.985Z,13.20
2023-05-23T18:58:38.705Z,13.20
2023-05-23T19:01:06.896Z,13.20
2023-05-23T19:03:37.319Z,13.20
2023-05-23T19:06:04.762Z,13.10
2023-05-23T19:08:32.437Z,13.10
2023-05-23T19:11:00.189Z,13.20
2023-05-23T19:13:27.666Z,13.10
2023-05-23T19:15:54.686Z,13.10
2023-05-23T19:18:21.495Z,13.20
2023-05-23T19:20:48.369Z,13.20
2023-05-23T19:23:15.465Z,13.30
2023-05-23T19:25:42.412Z,13.30
2023-05-23T19:28:09.351Z,13.30
2023-05-23T19:30:38.227Z,13.30
2023-05-23T19:33:05.679Z,13.30
2023-05-23T19:35:32.742Z,13.30
2023-05-23T19:38:00.842Z,13.30
2023-05-23T19:40:27.572Z,13.30
2023-05-23T19:42:54.443Z,13.30
2023-05-23T19:45:21.337Z,13.40
2023-05-23T19:47:48.148Z,13.30
2023-05-23T19:50:15.246Z,13.30
2023-05-23T19:52:42.193Z,13.30
2023-05-23T19:55:10.008Z,13.30
2023-05-23T19:57:37.287Z,13.20
2023-05-23T20:00:06.146Z,13.20
2023-05-23T20:02:33.114Z,13.20
2023-05-23T20:04:59.948Z,13.20
2023-05-23T20:07:26.879Z,13.20
2023-05-23T20:09:55.105Z,13.20
2023-05-23T20:12:21.902Z,13.20
2023-05-23T20:14:48.763Z,13.20
2023-05-23T20:17:15.578Z,13.10
2023-05-23T20:19:42.342Z,13.00
2023-05-23T20:22:09.106Z,13.00
2023-05-23T20:24:35.868Z,12.90
2023-05-23T20:27:02.723Z,12.90
2023-05-23T20:29:29.679Z,12.90
2023-05-23T20:31:56.447Z,12.90
2023-05-23T20:34:23.193Z,12.80
2023-05-23T20:36:50.170Z,12.80
2023-05-23T20:39:17.223Z,12.80
2023-05-23T20:41:45.596Z,12.70
2023-05-23T20:44:14.242Z,12.70
2023-05-23T20:46:41.088Z,12.60
2023-05-23T20:49:08.241Z,12.60
2023-05-23T20:51:37.139Z,12.50
2023-05-23T20:54:05.295Z,12.40
2023-05-23T20:56:32.602Z,12.50
2023-05-23T20:59:00.394Z,12.50
2023-05-23T21:01:28.107Z,12.50
2023-05-23T21:03:55.595Z,12.40
2023-05-23T21:06:23.735Z,12.40
2023-05-23T21:08:50.558Z,12.40
2023-05-23T21:11:17.410Z,12.30
2023-05-23T21:13:44.646Z,12.30
2023-05-23T21:16:14.416Z,12.30
2023-05-23T21:18:41.455Z,12.20
2023-05-23T21:21:08.351Z,12.10
2023-05-23T21:23:35.313Z,12.10
2023-05-23T21:26:02.251Z,12.00
2023-05-23T21:28:29.038Z,12.00
2023-05-23T21:30:56.310Z,11.90
2023-05-23T21:33:23.162Z,11.90
2023-05-23T21:35:51.145Z,11.90
2023-05-23T21:38:18.768Z,11.90
2023-05-23T21:40:45.610Z,11.80
2023-05-23T21:43:12.488Z,11.70
2023-05-23T21:45:39.274Z,11.70
2023-05-23T21:48:06.170Z,11.70
2023-05-23T21:50:32.971Z,11.70
2023-05-23T21:52:59.713Z,11.60
2023-05-23T21:55:27.294Z,11.50
2023-05-23T21:57:54.215Z,11.50
2023-05-23T22:00:21.710Z,11.50
2023-05-23T22:02:48.580Z,11.50
2023-05-23T22:05:15.509Z,11.50
2023-05-23T22:07:42.305Z,11.40
2023-05-23T22:10:09.658Z,11.40
2023-05-23T22:12:36.464Z,11.40
2023-05-23T22:15:03.568Z,11.40
2023-05-23T22:17:30.457Z,11.30
2023-05-23T22:19:58.261Z,11.30
2023-05-23T22:22:25.097Z,11.30
2023-05-23T22:24:52.615Z,11.20
2023-05-23T22:27:20.249Z,11.30
2023-05-23T22:29:47.090Z,11.20
2023-05-23T22:32:13.922Z,11.20
2023-05-23T22:34:40.819Z,11.20
2023-05-23T22:37:07.923Z,11.20
2023-05-23T22:39:34.764Z,11.20
2023-05-23T22:42:01.876Z,11.10
2023-05-23T22:44:28.810Z,11.10
2023-05-23T22:46:57.116Z,11.00
2023-05-23T22:49:25.234Z,11.00
2023-05-23T22:51:51.979Z,11.00
2023-05-23T22:54:18.849Z,10.90
2023-05-23T22:56:45.632Z,10.90
2023-05-23T22:59:12.468Z,10.90
2023-05-23T23:01:39.307Z,10.90
2023-05-23T23:04:06.209Z,10.80
2023-05-23T23:06:33.963Z,10.80
2023-05-23T23:09:00.699Z,10.80
2023-05-23T23:11:27.472Z,10.80
2023-05-23T23:13:54.283Z,10.80
2023-05-23T23:16:21.738Z,10.80
2023-05-23T23:18:49.079Z,10.80
2023-05-23T23:21:16.450Z,10.80
2023-05-23T23:23:43.247Z,10.80
2023-05-23T23:26:10.058Z,10.80
2023-05-23T23:28:36.832Z,10.70
2023-05-23T23:31:03.731Z,10.70
2023-05-23T23:33:30.541Z,10.70
2023-05-23T23:35:57.702Z,10.60
2023-05-23T23:38:24.503Z,10.60
2023-05-23T23:40:51.311Z,10.70
2023-05-23T23:43:18.253Z,10.70
2023-05-23T23:45:45.415Z,10.60
2023-05-23T23:48:13.905Z,10.70
2023-05-23T23:50:40.873Z,10.60
2023-05-23T23:53:07.852Z,10.60
2023-05-23T23:55:34.683Z,10.70
2023-05-23T23:58:01.416Z,10.60
